sensor_id;sensor_type;location;lat;lon;timestamp;pressure;altitude;pressure_sealevel;temperature;humidity
57234;BME280;43090;52.604;13.318;2023-04-27T00:00:59;101282.16;;;7.46;65.17
57234;BME280;43090;52.604;13.318;2023-04-27T00:03:26;101284.81;;;7.46;64.75
57234;BME280;43090;52.604;13.318;2023-04-27T00:05:53;101270.16;;;7.37;65.75
57234;BME280;43090;52.604;13.318;2023-04-27T00:08:20;101264.91;;;7.36;65.86
57234;BME280;43090;52.604;13.318;2023-04-27T00:10:47;101257.06;;;7.32;65.68
57234;BME280;43090;52.604;13.318;2023-04-27T00:13:13;101254.47;;;7.31;66.22
57234;BME280;43090;52.604;13.318;2023-04-27T00:15:39;101266.41;;;7.41;64.81
57234;BME280;43090;52.604;13.318;2023-04-27T00:18:06;101256.91;;;7.36;65.25
57234;BME280;43090;52.604;13.318;2023-04-27T00:20:33;101257.78;;;7.36;65.67
57234;BME280;43090;52.604;13.318;2023-04-27T00:22:59;101264.75;;;7.39;65.92
57234;BME280;43090;52.604;13.318;2023-04-27T00:25:25;101260.97;;;7.25;66.12
57234;BME280;43090;52.604;13.318;2023-04-27T00:27:52;101264.53;;;7.07;65.79
57234;BME280;43090;52.604;13.318;2023-04-27T00:30:18;101258.44;;;7.22;65.79
57234;BME280;43090;52.604;13.318;2023-04-27T00:32:45;101277.59;;;7.30;66.35
57234;BME280;43090;52.604;13.318;2023-04-27T00:35:12;101268.63;;;7.31;65.96
57234;BME280;43090;52.604;13.318;2023-04-27T00:37:38;101272.31;;;7.29;65.70
57234;BME280;43090;52.604;13.318;2023-04-27T00:40:05;101283.56;;;7.36;65.89
57234;BME280;43090;52.604;13.318;2023-04-27T00:42:33;101281.81;;;7.34;66.05
57234;BME280;43090;52.604;13.318;2023-04-27T00:45:00;101279.28;;;7.31;65.86
57234;BME280;43090;52.604;13.318;2023-04-27T00:47:28;101283.56;;;7.36;65.34
57234;BME280;43090;52.604;13.318;2023-04-27T00:49:55;101280.91;;;7.36;65.44
57234;BME280;43090;52.604;13.318;2023-04-27T00:52:22;101281.66;;;7.38;65.17
57234;BME280;43090;52.604;13.318;2023-04-27T00:54:50;101282.06;;;7.11;65.13
57234;BME280;43090;52.604;13.318;2023-04-27T00:57:20;101273.94;;;7.14;66.20
57234;BME280;43090;52.604;13.318;2023-04-27T00:59:48;101281.63;;;7.20;65.78
57234;BME280;43090;52.604;13.318;2023-04-27T01:02:14;101289.94;;;7.31;65.93
57234;BME280;43090;52.604;13.318;2023-04-27T01:04:42;101293.84;;;7.24;66.31
57234;BME280;43090;52.604;13.318;2023-04-27T01:07:09;101297.81;;;7.34;66.09
57234;BME280;43090;52.604;13.318;2023-04-27T01:09:35;101299.03;;;7.27;65.74
57234;BME280;43090;52.604;13.318;2023-04-27T01:12:01;101301.25;;;7.37;65.80
57234;BME280;43090;52.604;13.318;2023-04-27T01:14:28;101278.31;;;7.15;66.07
57234;BME280;43090;52.604;13.318;2023-04-27T01:16:55;101293.06;;;7.22;66.34
57234;BME280;43090;52.604;13.318;2023-04-27T01:19:21;101294.88;;;7.22;66.22
57234;BME280;43090;52.604;13.318;2023-04-27T01:21:48;101297.09;;;7.31;66.43
57234;BME280;43090;52.604;13.318;2023-04-27T01:24:15;101299.03;;;7.27;66.73
57234;BME280;43090;52.604;13.318;2023-04-27T01:26:41;101310.97;;;7.38;66.47
57234;BME280;43090;52.604;13.318;2023-04-27T01:29:08;101299.47;;;7.18;66.44
57234;BME280;43090;52.604;13.318;2023-04-27T01:31:34;101297.47;;;7.04;66.66
57234;BME280;43090;52.604;13.318;2023-04-27T01:34:01;101278.97;;;7.01;66.33
57234;BME280;43090;52.604;13.318;2023-04-27T01:50:27;101321.19;;;6.10;72.52
57234;BME280;43090;52.604;13.318;2023-04-27T01:52:53;101293.59;;;6.33;70.99
57234;BME280;43090;52.604;13.318;2023-04-27T01:55:20;101319.03;;;6.60;70.25
57234;BME280;43090;52.604;13.318;2023-04-27T01:57:46;101321.66;;;6.80;68.97
57234;BME280;43090;52.604;13.318;2023-04-27T02:00:13;101320.41;;;6.88;69.81
57234;BME280;43090;52.604;13.318;2023-04-27T02:02:39;101327.19;;;6.95;69.48
57234;BME280;43090;52.604;13.318;2023-04-27T02:05:06;101318.91;;;6.82;69.83
57234;BME280;43090;52.604;13.318;2023-04-27T02:07:33;101333.22;;;6.98;69.87
57234;BME280;43090;52.604;13.318;2023-04-27T02:09:59;101310.94;;;6.82;70.19
57234;BME280;43090;52.604;13.318;2023-04-27T02:12:25;101314.09;;;6.90;69.23
57234;BME280;43090;52.604;13.318;2023-04-27T02:14:52;101332.09;;;7.04;69.01
57234;BME280;43090;52.604;13.318;2023-04-27T02:17:18;101326.47;;;6.91;69.69
57234;BME280;43090;52.604;13.318;2023-04-27T02:19:45;101341.81;;;7.05;68.82
57234;BME280;43090;52.604;13.318;2023-04-27T02:22:11;101322.16;;;6.89;68.43
57234;BME280;43090;52.604;13.318;2023-04-27T02:24:38;101325.25;;;6.98;69.22
57234;BME280;43090;52.604;13.318;2023-04-27T02:27:04;101340.09;;;7.04;68.44
57234;BME280;43090;52.604;13.318;2023-04-27T02:29:31;101329.31;;;6.67;66.95
57234;BME280;43090;52.604;13.318;2023-04-27T02:31:58;101337.97;;;6.92;67.26
57234;BME280;43090;52.604;13.318;2023-04-27T02:34:25;101333.22;;;6.98;67.58
57234;BME280;43090;52.604;13.318;2023-04-27T02:36:51;101340.44;;;6.96;68.58
57234;BME280;43090;52.604;13.318;2023-04-27T02:39:18;101329.50;;;7.03;68.07
57234;BME280;43090;52.604;13.318;2023-04-27T02:41:47;101327.63;;;7.05;67.94
57234;BME280;43090;52.604;13.318;2023-04-27T02:44:14;101338.03;;;6.90;68.21
57234;BME280;43090;52.604;13.318;2023-04-27T02:46:41;101338.94;;;6.91;68.17
57234;BME280;43090;52.604;13.318;2023-04-27T02:49:07;101353.91;;;6.93;68.84
57234;BME280;43090;52.604;13.318;2023-04-27T02:51:34;101346.41;;;7.02;68.57
57234;BME280;43090;52.604;13.318;2023-04-27T02:54:00;101336.03;;;6.95;68.09
57234;BME280;43090;52.604;13.318;2023-04-27T02:56:27;101338.41;;;6.82;68.01
57234;BME280;43090;52.604;13.318;2023-04-27T02:58:53;101340.50;;;6.95;67.49
57234;BME280;43090;52.604;13.318;2023-04-27T03:01:20;101369.38;;;7.04;67.18
57234;BME280;43090;52.604;13.318;2023-04-27T03:03:47;101339.81;;;6.71;68.28
57234;BME280;43090;52.604;13.318;2023-04-27T03:06:14;101363.00;;;6.88;68.00
57234;BME280;43090;52.604;13.318;2023-04-27T03:08:40;101351.28;;;6.73;68.71
57234;BME280;43090;52.604;13.318;2023-04-27T03:11:07;101360.22;;;6.91;68.92
57234;BME280;43090;52.604;13.318;2023-04-27T03:13:34;101350.88;;;6.61;68.56
57234;BME280;43090;52.604;13.318;2023-04-27T03:16:08;101359.03;;;6.77;68.40
57234;BME280;43090;52.604;13.318;2023-04-27T03:18:36;101332.78;;;6.70;67.60
57234;BME280;43090;52.604;13.318;2023-04-27T03:21:10;101350.94;;;6.80;67.17
57234;BME280;43090;52.604;13.318;2023-04-27T03:23:37;101361.69;;;6.77;67.31
57234;BME280;43090;52.604;13.318;2023-04-27T03:26:08;101352.06;;;6.75;67.43
57234;BME280;43090;52.604;13.318;2023-04-27T03:28:35;101370.66;;;6.95;67.59
57234;BME280;43090;52.604;13.318;2023-04-27T03:31:09;101361.56;;;6.80;67.43
57234;BME280;43090;52.604;13.318;2023-04-27T03:33:37;101367.75;;;6.81;66.90
57234;BME280;43090;52.604;13.318;2023-04-27T03:36:05;101373.31;;;6.95;67.16
57234;BME280;43090;52.604;13.318;2023-04-27T03:38:33;101369.06;;;6.91;67.26
57234;BME280;43090;52.604;13.318;2023-04-27T03:40:59;101376.25;;;6.89;68.08
57234;BME280;43090;52.604;13.318;2023-04-27T03:43:26;101381.53;;;6.91;68.05
57234;BME280;43090;52.604;13.318;2023-04-27T03:45:53;101380.06;;;6.83;68.18
57234;BME280;43090;52.604;13.318;2023-04-27T03:48:20;101379.78;;;6.90;68.39
57234;BME280;43090;52.604;13.318;2023-04-27T03:50:47;101379.72;;;6.91;67.76
57234;BME280;43090;52.604;13.318;2023-04-27T03:53:13;101382.13;;;6.77;67.53
57234;BME280;43090;52.604;13.318;2023-04-27T03:55:40;101388.63;;;6.90;67.63
57234;BME280;43090;52.604;13.318;2023-04-27T03:58:08;101378.22;;;6.65;68.45
57234;BME280;43090;52.604;13.318;2023-04-27T04:00:39;101389.38;;;6.73;67.87
57234;BME280;43090;52.604;13.318;2023-04-27T04:03:06;101376.22;;;6.70;68.15
57234;BME280;43090;52.604;13.318;2023-04-27T04:05:33;101386.53;;;6.78;68.14
57234;BME280;43090;52.604;13.318;2023-04-27T04:08:00;101381.97;;;6.80;68.29
57234;BME280;43090;52.604;13.318;2023-04-27T04:10:26;101386.34;;;6.62;68.25
57234;BME280;43090;52.604;13.318;2023-04-27T04:12:53;101401.16;;;6.88;68.33
57234;BME280;43090;52.604;13.318;2023-04-27T04:15:19;101407.34;;;6.89;68.14
57234;BME280;43090;52.604;13.318;2023-04-27T04:17:46;101410.06;;;6.87;67.93
57234;BME280;43090;52.604;13.318;2023-04-27T04:20:14;101418.72;;;6.92;68.46
57234;BME280;43090;52.604;13.318;2023-04-27T04:22:41;101409.22;;;6.87;68.07
57234;BME280;43090;52.604;13.318;2023-04-27T04:25:08;101415.06;;;6.95;68.14
57234;BME280;43090;52.604;13.318;2023-04-27T04:27:35;101415.75;;;6.98;68.06
57234;BME280;43090;52.604;13.318;2023-04-27T04:30:04;101409.59;;;6.77;67.45
57234;BME280;43090;52.604;13.318;2023-04-27T04:32:34;101405.41;;;6.92;67.95
57234;BME280;43090;52.604;13.318;2023-04-27T04:35:06;101418.41;;;6.98;68.21
57234;BME280;43090;52.604;13.318;2023-04-27T04:37:33;101418.16;;;7.05;68.22
57234;BME280;43090;52.604;13.318;2023-04-27T04:40:03;101418.22;;;7.03;67.30
57234;BME280;43090;52.604;13.318;2023-04-27T04:42:35;101424.41;;;7.04;67.54
57234;BME280;43090;52.604;13.318;2023-04-27T04:45:02;101428.31;;;7.15;67.21
57234;BME280;43090;52.604;13.318;2023-04-27T04:47:29;101407.31;;;7.09;67.85
57234;BME280;43090;52.604;13.318;2023-04-27T04:50:00;101406.97;;;7.17;68.04
57234;BME280;43090;52.604;13.318;2023-04-27T04:52:26;101427.69;;;7.29;67.50
57234;BME280;43090;52.604;13.318;2023-04-27T04:54:53;101415.06;;;7.14;67.25
57234;BME280;43090;52.604;13.318;2023-04-27T04:57:19;101426.09;;;7.25;66.58
57234;BME280;43090;52.604;13.318;2023-04-27T04:59:46;101408.22;;;7.08;66.16
57234;BME280;43090;52.604;13.318;2023-04-27T05:02:13;101421.91;;;7.20;65.89
57234;BME280;43090;52.604;13.318;2023-04-27T05:04:39;101436.59;;;7.28;65.84
57234;BME280;43090;52.604;13.318;2023-04-27T05:07:06;101414.72;;;7.03;66.19
57234;BME280;43090;52.604;13.318;2023-04-27T05:09:32;101426.94;;;7.07;67.03
57234;BME280;43090;52.604;13.318;2023-04-27T05:12:00;101419.38;;;6.97;67.44
57234;BME280;43090;52.604;13.318;2023-04-27T05:14:27;101433.47;;;6.99;66.32
57234;BME280;43090;52.604;13.318;2023-04-27T05:16:53;101432.13;;;7.29;66.52
57234;BME280;43090;52.604;13.318;2023-04-27T05:19:20;101425.72;;;7.14;67.05
57234;BME280;43090;52.604;13.318;2023-04-27T05:21:46;101441.66;;;7.34;65.57
57234;BME280;43090;52.604;13.318;2023-04-27T05:24:13;101434.09;;;7.25;66.26
57234;BME280;43090;52.604;13.318;2023-04-27T05:26:41;101432.09;;;7.30;66.54
57234;BME280;43090;52.604;13.318;2023-04-27T05:29:08;101441.31;;;7.42;65.96
57234;BME280;43090;52.604;13.318;2023-04-27T05:31:34;101442.66;;;7.51;65.73
57234;BME280;43090;52.604;13.318;2023-04-27T05:34:01;101436.13;;;7.58;65.27
57234;BME280;43090;52.604;13.318;2023-04-27T05:36:27;101425.59;;;7.36;64.09
57234;BME280;43090;52.604;13.318;2023-04-27T05:38:54;101417.69;;;7.34;64.24
57234;BME280;43090;52.604;13.318;2023-04-27T05:41:21;101404.38;;;7.34;64.66
57234;BME280;43090;52.604;13.318;2023-04-27T05:43:49;101412.25;;;7.55;63.89
57234;BME280;43090;52.604;13.318;2023-04-27T05:46:16;101434.66;;;7.51;63.93
57234;BME280;43090;52.604;13.318;2023-04-27T05:48:43;101437.09;;;7.37;64.04
57234;BME280;43090;52.604;13.318;2023-04-27T05:51:09;101427.31;;;7.56;63.81
57234;BME280;43090;52.604;13.318;2023-04-27T05:53:36;101451.53;;;7.52;62.11
57234;BME280;43090;52.604;13.318;2023-04-27T05:56:03;101439.13;;;7.70;63.26
57234;BME280;43090;52.604;13.318;2023-04-27T05:58:32;101437.09;;;7.94;62.85
57234;BME280;43090;52.604;13.318;2023-04-27T06:01:02;101441.25;;;7.99;62.63
57234;BME280;43090;52.604;13.318;2023-04-27T06:03:31;101450.06;;;7.82;60.80
57234;BME280;43090;52.604;13.318;2023-04-27T06:06:00;101437.31;;;8.07;60.61
57234;BME280;43090;52.604;13.318;2023-04-27T06:08:27;101469.91;;;8.67;61.69
57234;BME280;43090;52.604;13.318;2023-04-27T06:10:53;101439.25;;;8.92;59.61
57234;BME280;43090;52.604;13.318;2023-04-27T06:13:20;101456.56;;;9.19;56.90
57234;BME280;43090;52.604;13.318;2023-04-27T06:15:47;101458.25;;;8.86;57.89
57234;BME280;43090;52.604;13.318;2023-04-27T06:18:13;101454.81;;;8.66;57.42
57234;BME280;43090;52.604;13.318;2023-04-27T06:20:40;101447.63;;;8.51;58.96
57234;BME280;43090;52.604;13.318;2023-04-27T06:23:07;101457.94;;;8.40;57.46
57234;BME280;43090;52.604;13.318;2023-04-27T06:25:33;101469.03;;;8.84;57.60
57234;BME280;43090;52.604;13.318;2023-04-27T06:28:01;101465.22;;;9.40;56.38
57234;BME280;43090;52.604;13.318;2023-04-27T06:30:27;101462.69;;;9.37;54.51
57234;BME280;43090;52.604;13.318;2023-04-27T06:32:54;101462.19;;;8.96;54.96
57234;BME280;43090;52.604;13.318;2023-04-27T06:35:20;101456.91;;;9.28;55.32
57234;BME280;43090;52.604;13.318;2023-04-27T06:37:46;101461.53;;;9.42;56.27
57234;BME280;43090;52.604;13.318;2023-04-27T06:40:13;101476.25;;;9.00;53.92
57234;BME280;43090;52.604;13.318;2023-04-27T06:42:40;101459.97;;;9.05;53.66
57234;BME280;43090;52.604;13.318;2023-04-27T06:45:06;101478.94;;;9.65;54.42
57234;BME280;43090;52.604;13.318;2023-04-27T06:47:33;101474.72;;;9.61;54.42
57234;BME280;43090;52.604;13.318;2023-04-27T06:50:00;101475.31;;;9.34;54.79
57234;BME280;43090;52.604;13.318;2023-04-27T06:52:26;101469.84;;;9.20;55.74
57234;BME280;43090;52.604;13.318;2023-04-27T06:54:52;101462.88;;;9.00;56.53
57234;BME280;43090;52.604;13.318;2023-04-27T06:57:19;101476.66;;;9.91;54.98
57234;BME280;43090;52.604;13.318;2023-04-27T06:59:45;101452.47;;;10.09;53.08
57234;BME280;43090;52.604;13.318;2023-04-27T07:02:12;101468.50;;;10.25;51.84
57234;BME280;43090;52.604;13.318;2023-04-27T07:04:38;101480.53;;;10.02;52.44
57234;BME280;43090;52.604;13.318;2023-04-27T07:07:05;101479.41;;;9.74;52.98
57234;BME280;43090;52.604;13.318;2023-04-27T07:09:32;101479.66;;;9.53;53.89
57234;BME280;43090;52.604;13.318;2023-04-27T07:11:59;101486.56;;;9.24;53.53
57234;BME280;43090;52.604;13.318;2023-04-27T07:14:26;101471.41;;;9.24;53.73
57234;BME280;43090;52.604;13.318;2023-04-27T07:16:53;101462.19;;;8.96;53.43
57234;BME280;43090;52.604;13.318;2023-04-27T07:19:20;101463.59;;;9.04;53.99
57234;BME280;43090;52.604;13.318;2023-04-27T07:21:46;101464.81;;;9.14;54.49
57234;BME280;43090;52.604;13.318;2023-04-27T07:24:13;101489.09;;;9.43;55.86
57234;BME280;43090;52.604;13.318;2023-04-27T07:26:39;101476.75;;;9.24;54.05
57234;BME280;43090;52.604;13.318;2023-04-27T07:29:06;101467.34;;;8.99;53.81
57234;BME280;43090;52.604;13.318;2023-04-27T07:31:48;101459.75;;;9.25;53.44
57234;BME280;43090;52.604;13.318;2023-04-27T07:34:17;101469.81;;;9.70;53.70
57234;BME280;43090;52.604;13.318;2023-04-27T07:36:44;101466.47;;;9.50;52.45
57234;BME280;43090;52.604;13.318;2023-04-27T07:39:10;101472.63;;;9.34;55.87
57234;BME280;43090;52.604;13.318;2023-04-27T07:41:38;101475.25;;;9.52;51.24
57234;BME280;43090;52.604;13.318;2023-04-27T07:44:04;101480.16;;;9.60;53.63
57234;BME280;43090;52.604;13.318;2023-04-27T07:46:30;101475.00;;;9.89;50.89
57234;BME280;43090;52.604;13.318;2023-04-27T07:48:57;101482.88;;;10.99;50.08
57234;BME280;43090;52.604;13.318;2023-04-27T07:51:25;101485.19;;;10.60;49.12
57234;BME280;43090;52.604;13.318;2023-04-27T07:53:54;101472.00;;;10.57;47.71
57234;BME280;43090;52.604;13.318;2023-04-27T07:56:20;101498.31;;;10.95;47.15
57234;BME280;43090;52.604;13.318;2023-04-27T07:58:47;101483.25;;;10.78;47.27
57234;BME280;43090;52.604;13.318;2023-04-27T08:01:14;101476.09;;;10.16;49.04
57234;BME280;43090;52.604;13.318;2023-04-27T08:03:40;101486.78;;;10.79;47.77
57234;BME280;43090;52.604;13.318;2023-04-27T08:06:07;101483.28;;;10.93;48.33
57234;BME280;43090;52.604;13.318;2023-04-27T08:08:34;101495.47;;;11.27;47.81
57234;BME280;43090;52.604;13.318;2023-04-27T08:11:00;101498.22;;;11.55;48.07
57234;BME280;43090;52.604;13.318;2023-04-27T08:13:27;101493.53;;;11.44;47.37
57234;BME280;43090;52.604;13.318;2023-04-27T08:15:54;101488.09;;;10.86;48.51
57234;BME280;43090;52.604;13.318;2023-04-27T08:18:25;101492.94;;;11.53;46.77
57234;BME280;43090;52.604;13.318;2023-04-27T08:20:53;101489.00;;;11.73;46.58
57234;BME280;43090;52.604;13.318;2023-04-27T08:23:19;101496.16;;;11.87;45.29
57234;BME280;43090;52.604;13.318;2023-04-27T08:25:46;101510.56;;;11.43;46.03
57234;BME280;43090;52.604;13.318;2023-04-27T08:28:14;101510.47;;;10.71;48.61
57234;BME280;43090;52.604;13.318;2023-04-27T08:30:41;101513.19;;;10.55;47.60
57234;BME280;43090;52.604;13.318;2023-04-27T08:33:07;101501.72;;;9.23;48.58
57234;BME280;43090;52.604;13.318;2023-04-27T08:35:34;101505.84;;;9.13;51.34
57234;BME280;43090;52.604;13.318;2023-04-27T08:38:01;101508.84;;;9.40;49.96
57234;BME280;43090;52.604;13.318;2023-04-27T08:40:27;101494.78;;;9.37;48.65
57234;BME280;43090;52.604;13.318;2023-04-27T08:42:59;101500.03;;;9.22;48.47
57234;BME280;43090;52.604;13.318;2023-04-27T08:45:26;101485.59;;;10.06;48.16
57234;BME280;43090;52.604;13.318;2023-04-27T08:47:53;101486.34;;;10.56;48.56
57234;BME280;43090;52.604;13.318;2023-04-27T08:50:20;101479.34;;;10.98;47.38
57234;BME280;43090;52.604;13.318;2023-04-27T08:52:49;101491.13;;;10.96;44.99
57234;BME280;43090;52.604;13.318;2023-04-27T08:55:16;101505.16;;;10.85;45.43
57234;BME280;43090;52.604;13.318;2023-04-27T08:57:56;101479.75;;;10.62;45.68
57234;BME280;43090;52.604;13.318;2023-04-27T09:00:24;101507.34;;;10.16;45.69
57234;BME280;43090;52.604;13.318;2023-04-27T09:02:51;101500.03;;;10.04;46.49
57234;BME280;43090;52.604;13.318;2023-04-27T09:05:19;101508.03;;;10.04;48.10
57234;BME280;43090;52.604;13.318;2023-04-27T09:08:15;101511.31;;;10.09;47.92
57234;BME280;43090;52.604;13.318;2023-04-27T09:10:46;101507.34;;;9.84;49.38
57234;BME280;43090;52.604;13.318;2023-04-27T09:13:13;101509.41;;;9.79;49.54
57234;BME280;43090;52.604;13.318;2023-04-27T09:15:41;101516.88;;;9.56;50.69
57234;BME280;43090;52.604;13.318;2023-04-27T09:18:21;101504.19;;;9.44;49.52
57234;BME280;43090;52.604;13.318;2023-04-27T09:20:48;101521.97;;;9.45;50.34
57234;BME280;43090;52.604;13.318;2023-04-27T09:25:54;101511.56;;;9.72;48.44
57234;BME280;43090;52.604;13.318;2023-04-27T09:28:23;101490.25;;;10.03;48.23
57234;BME280;43090;52.604;13.318;2023-04-27T09:30:51;101485.97;;;10.62;46.26
57234;BME280;43090;52.604;13.318;2023-04-27T09:33:29;101485.38;;;9.95;44.45
57234;BME280;43090;52.604;13.318;2023-04-27T09:36:02;101488.91;;;9.95;46.58
57234;BME280;43090;52.604;13.318;2023-04-27T09:38:29;101484.16;;;10.00;46.75
57234;BME280;43090;52.604;13.318;2023-04-27T09:40:59;101488.00;;;9.79;46.94
57234;BME280;43090;52.604;13.318;2023-04-27T09:43:25;101492.88;;;10.04;47.88
57234;BME280;43090;52.604;13.318;2023-04-27T09:45:54;101482.84;;;9.10;48.14
57234;BME280;43090;52.604;13.318;2023-04-27T09:48:22;101478.09;;;9.65;51.32
57234;BME280;43090;52.604;13.318;2023-04-27T09:50:50;101487.34;;;9.59;47.18
57234;BME280;43090;52.604;13.318;2023-04-27T09:53:25;101477.84;;;9.70;46.31
57234;BME280;43090;52.604;13.318;2023-04-27T09:58:58;101473.09;;;9.91;45.95
57234;BME280;43090;52.604;13.318;2023-04-27T10:01:38;101466.28;;;10.01;45.90
57234;BME280;43090;52.604;13.318;2023-04-27T10:04:29;101480.38;;;10.51;44.07
57234;BME280;43090;52.604;13.318;2023-04-27T10:07:02;101462.97;;;10.44;44.36
57234;BME280;43090;52.604;13.318;2023-04-27T10:09:35;101453.00;;;9.52;44.50
57234;BME280;43090;52.604;13.318;2023-04-27T10:14:50;101471.28;;;9.91;44.85
57234;BME280;43090;52.604;13.318;2023-04-27T10:17:17;101448.59;;;9.98;44.90
57234;BME280;43090;52.604;13.318;2023-04-27T10:20:03;101451.25;;;9.98;46.96
57234;BME280;43090;52.604;13.318;2023-04-27T10:22:46;101455.75;;;9.98;46.84
57234;BME280;43090;52.604;13.318;2023-04-27T10:25:21;101456.34;;;10.19;45.97
57234;BME280;43090;52.604;13.318;2023-04-27T10:27:50;101458.06;;;10.20;46.61
57234;BME280;43090;52.604;13.318;2023-04-27T10:30:18;101450.03;;;10.36;47.56
57234;BME280;43090;52.604;13.318;2023-04-27T10:32:50;101453.38;;;10.40;45.35
57234;BME280;43090;52.604;13.318;2023-04-27T10:35:18;101467.78;;;10.53;44.40
57234;BME280;43090;52.604;13.318;2023-04-27T10:37:46;101451.72;;;10.53;46.71
57234;BME280;43090;52.604;13.318;2023-04-27T10:40:13;101454.63;;;10.02;43.03
57234;BME280;43090;52.604;13.318;2023-04-27T10:42:44;101457.22;;;10.04;42.56
57234;BME280;43090;52.604;13.318;2023-04-27T10:45:11;101461.44;;;10.54;43.58
57234;BME280;43090;52.604;13.318;2023-04-27T10:47:41;101469.88;;;10.16;46.54
57234;BME280;43090;52.604;13.318;2023-04-27T10:50:09;101468.00;;;10.02;44.28
57234;BME280;43090;52.604;13.318;2023-04-27T10:52:41;101466.75;;;10.24;44.68
57234;BME280;43090;52.604;13.318;2023-04-27T10:55:21;101464.69;;;10.29;42.42
57234;BME280;43090;52.604;13.318;2023-04-27T10:57:52;101470.41;;;9.75;41.22
57234;BME280;43090;52.604;13.318;2023-04-27T11:00:24;101448.09;;;10.38;41.92
57234;BME280;43090;52.604;13.318;2023-04-27T11:02:54;101453.97;;;10.29;42.65
57234;BME280;43090;52.604;13.318;2023-04-27T11:05:26;101468.25;;;10.29;43.20
57234;BME280;43090;52.604;13.318;2023-04-27T11:08:06;101458.56;;;10.43;39.49
57234;BME280;43090;52.604;13.318;2023-04-27T11:10:33;101446.63;;;10.93;41.51
57234;BME280;43090;52.604;13.318;2023-04-27T11:13:11;101460.78;;;11.39;40.90
57234;BME280;43090;52.604;13.318;2023-04-27T11:15:52;101462.69;;;11.51;41.50
57234;BME280;43090;52.604;13.318;2023-04-27T11:18:25;101455.25;;;11.27;38.94
57234;BME280;43090;52.604;13.318;2023-04-27T11:20:53;101464.88;;;11.59;40.75
57234;BME280;43090;52.604;13.318;2023-04-27T11:23:29;101469.41;;;11.44;42.01
57234;BME280;43090;52.604;13.318;2023-04-27T11:25:57;101464.50;;;11.22;41.33
57234;BME280;43090;52.604;13.318;2023-04-27T11:28:24;101479.75;;;11.21;41.77
57234;BME280;43090;52.604;13.318;2023-04-27T11:30:58;101489.88;;;11.16;41.66
57234;BME280;43090;52.604;13.318;2023-04-27T11:33:25;101467.06;;;10.80;38.48
57234;BME280;43090;52.604;13.318;2023-04-27T11:35:52;101470.91;;;11.19;40.89
57234;BME280;43090;52.604;13.318;2023-04-27T11:38:21;101479.03;;;10.89;43.51
57234;BME280;43090;52.604;13.318;2023-04-27T11:40:58;101487.34;;;9.91;41.08
57234;BME280;43090;52.604;13.318;2023-04-27T11:43:26;101488.97;;;10.10;43.25
57234;BME280;43090;52.604;13.318;2023-04-27T11:45:54;101487.09;;;10.58;42.95
57234;BME280;43090;52.604;13.318;2023-04-27T11:48:24;101480.56;;;10.48;42.80
57234;BME280;43090;52.604;13.318;2023-04-27T11:50:52;101485.44;;;10.25;43.43
57234;BME280;43090;52.604;13.318;2023-04-27T11:53:37;101500.09;;;10.18;42.97
57234;BME280;43090;52.604;13.318;2023-04-27T11:56:06;101497.03;;;10.56;45.70
57234;BME280;43090;52.604;13.318;2023-04-27T11:58:34;101493.38;;;10.73;45.33
57234;BME280;43090;52.604;13.318;2023-04-27T12:01:02;101508.34;;;10.61;44.15
57234;BME280;43090;52.604;13.318;2023-04-27T12:03:29;101490.75;;;10.57;44.77
57234;BME280;43090;52.604;13.318;2023-04-27T12:05:57;101488.66;;;10.62;45.32
57234;BME280;43090;52.604;13.318;2023-04-27T12:08:41;101499.06;;;10.67;46.44
57234;BME280;43090;52.604;13.318;2023-04-27T12:11:08;101499.31;;;10.48;45.69
57234;BME280;43090;52.604;13.318;2023-04-27T12:13:34;101503.50;;;10.68;44.85
57234;BME280;43090;52.604;13.318;2023-04-27T12:16:01;101507.94;;;10.98;46.13
57234;BME280;43090;52.604;13.318;2023-04-27T12:18:27;101503.78;;;11.23;45.11
57234;BME280;43090;52.604;13.318;2023-04-27T12:20:54;101498.97;;;11.71;43.29
57234;BME280;43090;52.604;13.318;2023-04-27T12:23:20;101499.06;;;11.84;44.19
57234;BME280;43090;52.604;13.318;2023-04-27T12:25:47;101500.34;;;11.21;44.51
57234;BME280;43090;52.604;13.318;2023-04-27T12:28:13;101508.56;;;11.32;42.84
57234;BME280;43090;52.604;13.318;2023-04-27T12:30:44;101493.34;;;11.04;42.81
57234;BME280;43090;52.604;13.318;2023-04-27T12:33:10;101495.06;;;11.05;40.54
57234;BME280;43090;52.604;13.318;2023-04-27T12:35:37;101504.06;;;11.04;41.55
57234;BME280;43090;52.604;13.318;2023-04-27T12:38:04;101487.59;;;10.95;40.20
57234;BME280;43090;52.604;13.318;2023-04-27T12:40:30;101484.59;;;11.00;40.64
57234;BME280;43090;52.604;13.318;2023-04-27T12:42:59;101501.56;;;11.58;41.68
57234;BME280;43090;52.604;13.318;2023-04-27T12:45:26;101497.69;;;11.91;42.72
57234;BME280;43090;52.604;13.318;2023-04-27T12:47:53;101486.13;;;11.76;41.25
57234;BME280;43090;52.604;13.318;2023-04-27T12:50:30;101479.88;;;11.76;37.84
57234;BME280;43090;52.604;13.318;2023-04-27T12:52:57;101494.28;;;11.75;37.36
57234;BME280;43090;52.604;13.318;2023-04-27T12:55:25;101491.41;;;11.78;39.35
57234;BME280;43090;52.604;13.318;2023-04-27T12:57:59;101498.34;;;12.09;41.46
57234;BME280;43090;52.604;13.318;2023-04-27T13:00:26;101495.59;;;11.96;38.23
57234;BME280;43090;52.604;13.318;2023-04-27T13:02:54;101496.19;;;11.58;38.32
57234;BME280;43090;52.604;13.318;2023-04-27T13:05:22;101479.34;;;11.56;36.90
57234;BME280;43090;52.604;13.318;2023-04-27T13:07:48;101496.97;;;11.60;40.85
57234;BME280;43090;52.604;13.318;2023-04-27T13:10:15;101494.81;;;11.80;36.92
57234;BME280;43090;52.604;13.318;2023-04-27T13:12:41;101479.25;;;11.72;39.41
57234;BME280;43090;52.604;13.318;2023-04-27T13:15:08;101482.41;;;11.79;39.26